Time;durP1;ratioP1;P1;durP2;ratioP2;P2;SDS_P1;SDS_P2;PMS_P1;PMS_P2;Temp;Humidity;BMP_temperature;BMP_pressure;BME280_temperature;BME280_humidity;BME280_pressure;Samples;Min_cycle;Max_cycle;Signal;HPM_P1;HPM_P2
2022/09/17 00:01:29;;;;;;;10.07;5.37;;;10.20;99.90;;;;;;5052288;28;20449;-73
2022/09/17 00:03:59;;;;;;;8.63;4.90;;;10.20;99.90;;;;;;5052264;28;20484;-73
2022/09/17 00:06:26;;;;;;;9.00;4.97;;;10.20;99.90;;;;;;5051818;28;20450;-73
2022/09/17 00:08:54;;;;;;;17.37;5.23;;;10.30;99.90;;;;;;5052103;28;20475;-73
2022/09/17 00:11:22;;;;;;;8.20;5.50;;;10.30;99.90;;;;;;5051736;28;20948;-73
2022/09/17 00:13:50;;;;;;;8.60;4.97;;;10.30;99.90;;;;;;5052315;28;20846;-72
2022/09/17 00:16:28;;;;;;;12.10;4.87;;;10.20;99.90;;;;;;5048797;28;20488;-73
2022/09/17 00:18:55;;;;;;;18.97;5.13;;;10.20;99.90;;;;;;5052306;28;20960;-72
2022/09/17 00:21:23;;;;;;;10.50;5.37;;;10.20;99.90;;;;;;5052075;28;20987;-72
2022/09/17 00:23:54;;;;;;;9.23;5.30;;;10.20;99.90;;;;;;5052302;28;20469;-72
2022/09/17 00:26:21;;;;;;;12.13;5.40;;;10.10;99.90;;;;;;5051916;28;21196;-72
2022/09/17 00:28:50;;;;;;;15.07;5.17;;;10.10;99.90;;;;;;5052378;28;20442;-72
2022/09/17 00:31:16;;;;;;;8.23;4.83;;;10.10;99.90;;;;;;5052211;28;20510;-72
2022/09/17 00:33:44;;;;;;;11.57;5.60;;;10.10;99.90;;;;;;5052021;28;20473;-72
2022/09/17 00:36:11;;;;;;;11.30;5.40;;;10.10;99.90;;;;;;5051778;28;20543;-72
2022/09/17 00:38:38;;;;;;;15.63;5.70;;;10.10;99.90;;;;;;5051666;28;20456;-72
2022/09/17 00:41:06;;;;;;;10.70;5.27;;;10.10;99.90;;;;;;5051749;28;20487;-73
2022/09/17 00:43:41;;;;;;;20.47;6.30;;;10.10;99.90;;;;;;5051618;28;20465;-72
2022/09/17 00:46:18;;;;;;;15.67;5.60;;;10.10;99.90;;;;;;5050315;28;20910;-72
2022/09/17 00:48:47;;;;;;;7.83;5.00;;;10.10;99.90;;;;;;5049991;28;20514;-72
2022/09/17 00:51:18;;;;;;;6.80;4.90;;;10.10;99.90;;;;;;5051208;28;20449;-72
2022/09/17 00:53:45;;;;;;;12.53;5.90;;;10.10;99.90;;;;;;5051046;28;21013;-73
2022/09/17 00:56:18;;;;;;;10.03;4.83;;;10.20;99.90;;;;;;5051119;28;20559;-72
2022/09/17 00:58:45;;;;;;;10.87;5.30;;;10.20;99.90;;;;;;5051124;28;20464;-73
2022/09/17 01:01:13;;;;;;;9.60;5.87;;;10.20;99.90;;;;;;5051082;28;20457;-72
2022/09/17 01:03:41;;;;;;;10.70;6.47;;;10.20;99.90;;;;;;5050544;28;20477;-72
2022/09/17 01:06:16;;;;;;;18.27;6.53;;;10.20;99.90;;;;;;5051049;28;20507;-72
2022/09/17 01:08:53;;;;;;;9.93;6.07;;;10.20;99.90;;;;;;5050962;28;20485;-73
2022/09/17 01:11:47;;;;;;;11.00;6.00;;;10.20;99.90;;;;;;5051222;28;20456;-72
2022/09/17 01:14:26;;;;;;;9.07;5.80;;;10.20;99.90;;;;;;5050357;28;20533;-73
2022/09/17 01:17:01;;;;;;;13.87;5.37;;;10.20;99.90;;;;;;5050626;28;20485;-72
2022/09/17 01:19:56;;;;;;;13.37;6.00;;;10.20;99.90;;;;;;5050695;28;20502;-72
2022/09/17 01:22:30;;;;;;;17.17;6.67;;;10.20;99.90;;;;;;5047376;28;20445;-72
2022/09/17 01:25:13;;;;;;;12.80;5.57;;;10.10;99.90;;;;;;5050747;28;20554;-72
2022/09/17 01:28:15;;;;;;;12.13;6.57;;;10.10;99.90;;;;;;5051012;28;20544;-72
2022/09/17 01:31:19;;;;;;;12.23;6.30;;;10.10;99.90;;;;;;5039787;28;20461;-72
2022/09/17 01:33:52;;;;;;;13.80;5.97;;;10.10;99.90;;;;;;5050687;28;21070;-72
2022/09/17 01:36:35;;;;;;;13.67;6.53;;;10.10;99.90;;;;;;5046791;28;20490;-72
2022/09/17 01:39:07;;;;;;;17.90;6.70;;;10.00;99.90;;;;;;5050647;28;20449;-73
2022/09/17 01:41:43;;;;;;;11.40;6.97;;;10.00;99.90;;;;;;5051122;28;20480;-73
2022/09/17 01:44:16;;;;;;;7.93;6.67;;;10.00;99.90;;;;;;5050871;28;20477;-73
2022/09/17 01:46:49;;;;;;;12.93;7.30;;;10.00;99.90;;;;;;5050466;28;20504;-73
2022/09/17 01:49:17;;;;;;;14.23;7.20;;;10.00;99.90;;;;;;5050778;28;20865;-73
2022/09/17 01:51:47;;;;;;;14.87;7.17;;;10.00;99.90;;;;;;5050953;28;20480;-73
2022/09/17 01:54:19;;;;;;;17.43;7.50;;;10.00;99.90;;;;;;5050607;28;20480;-73
2022/09/17 01:56:50;;;;;;;12.17;7.90;;;10.00;99.90;;;;;;5050467;28;21035;-73
2022/09/17 01:59:22;;;;;;;13.80;7.40;;;10.00;99.90;;;;;;5046561;28;20507;-73
2022/09/17 02:01:54;;;;;;;10.67;7.27;;;9.90;99.90;;;;;;5050578;28;20949;-73
2022/09/17 02:04:25;;;;;;;13.30;7.33;;;9.90;99.90;;;;;;5050311;28;20476;-73
2022/09/17 02:06:59;;;;;;;14.77;7.40;;;9.90;99.90;;;;;;5049924;28;20450;-73
2022/09/17 02:09:31;;;;;;;9.63;7.10;;;9.90;99.90;;;;;;5049406;28;20506;-73
2022/09/17 02:12:02;;;;;;;12.00;6.90;;;9.90;99.90;;;;;;5050377;28;20534;-73
2022/09/17 02:14:35;;;;;;;8.67;7.00;;;9.80;99.90;;;;;;5049835;28;21091;-73
2022/09/17 02:20:30;;;;;;;12.53;7.03;;;9.80;99.90;;;;;;5051340;28;20461;-73
2022/09/17 02:23:00;;;;;;;11.90;7.40;;;9.70;99.90;;;;;;5050686;28;20472;-72
2022/09/17 02:25:33;;;;;;;11.47;7.20;;;9.70;99.90;;;;;;5050860;28;20511;-72
2022/09/17 02:28:04;;;;;;;10.43;7.37;;;9.70;99.90;;;;;;5050280;28;20448;-72
2022/09/17 02:30:31;;;;;;;9.47;6.87;;;9.70;99.90;;;;;;5046377;28;20463;-73
2022/09/17 02:32:59;;;;;;;8.93;6.87;;;9.70;99.90;;;;;;5049860;28;20494;-73
2022/09/17 02:35:27;;;;;;;11.80;6.87;;;9.60;99.90;;;;;;5049674;28;20453;-73
2022/09/17 02:37:54;;;;;;;8.47;6.30;;;9.60;99.90;;;;;;5049799;28;20575;-73
2022/09/17 02:40:27;;;;;;;11.97;7.00;;;9.60;99.90;;;;;;5049936;28;20452;-73
2022/09/17 02:43:06;;;;;;;7.50;6.80;;;9.60;99.90;;;;;;5049608;28;20555;-73
2022/09/17 02:45:45;;;;;;;11.33;7.17;;;9.60;99.90;;;;;;5049657;28;20452;-73
2022/09/17 02:48:27;;;;;;;7.17;6.47;;;9.60;99.90;;;;;;5049908;28;20476;-72
2022/09/17 02:51:08;;;;;;;7.83;6.87;;;9.60;99.90;;;;;;5049829;28;20512;-73
2022/09/17 02:53:41;;;;;;;13.47;6.77;;;9.50;99.90;;;;;;5046328;28;20999;-72
2022/09/17 02:56:18;;;;;;;10.07;7.13;;;9.60;99.90;;;;;;5049167;28;20471;-72
2022/09/17 02:58:52;;;;;;;9.10;8.03;;;9.60;99.90;;;;;;5049932;28;20502;-72
2022/09/17 03:01:25;;;;;;;12.53;7.90;;;9.60;99.90;;;;;;5049713;28;20807;-72
2022/09/17 03:03:54;;;;;;;9.70;7.93;;;9.60;99.90;;;;;;5049764;28;20500;-73
2022/09/17 03:06:22;;;;;;;11.10;7.60;;;9.50;99.90;;;;;;5048287;28;20450;-73
2022/09/17 03:08:49;;;;;;;13.50;8.27;;;9.50;99.90;;;;;;5049610;28;20530;-73
2022/09/17 03:11:16;;;;;;;12.37;8.83;;;9.50;99.90;;;;;;5050417;28;20464;-73
2022/09/17 03:13:43;;;;;;;15.77;8.60;;;9.60;99.90;;;;;;5053367;28;20472;-73
2022/09/17 03:16:10;;;;;;;17.40;10.10;;;9.60;99.90;;;;;;5052590;28;20948;-72
2022/09/17 03:18:36;;;;;;;15.17;9.63;;;9.60;99.90;;;;;;5053110;28;20534;-72
2022/09/17 03:21:03;;;;;;;17.70;9.20;;;9.60;99.90;;;;;;5052812;28;20518;-72
2022/09/17 03:23:31;;;;;;;14.20;9.20;;;9.60;99.90;;;;;;5052906;28;20888;-72
2022/09/17 03:25:58;;;;;;;20.23;8.70;;;9.60;99.90;;;;;;5052721;28;20453;-72
2022/09/17 03:28:25;;;;;;;15.13;9.33;;;9.60;99.90;;;;;;5053374;28;20893;-72
2022/09/17 03:30:52;;;;;;;17.43;8.80;;;9.60;99.90;;;;;;5053034;28;20531;-72
2022/09/17 03:33:19;;;;;;;16.03;8.60;;;9.60;99.90;;;;;;5052576;28;20468;-72
2022/09/17 03:35:46;;;;;;;21.33;9.47;;;9.60;99.90;;;;;;5052321;28;20453;-72
2022/09/17 03:38:13;;;;;;;16.10;8.97;;;9.60;99.90;;;;;;5052743;28;20515;-72
2022/09/17 03:40:41;;;;;;;9.90;7.40;;;9.60;99.90;;;;;;5052587;28;20474;-72
2022/09/17 03:43:09;;;;;;;8.87;7.97;;;9.60;99.90;;;;;;5052925;28;20481;-72
2022/09/17 03:45:35;;;;;;;13.77;8.30;;;9.60;99.90;;;;;;5052289;28;20454;-72
2022/09/17 03:48:02;;;;;;;11.37;7.63;;;9.60;99.90;;;;;;5052687;28;20514;-72
2022/09/17 03:50:29;;;;;;;12.77;8.03;;;9.60;99.90;;;;;;5052251;28;20500;-72
2022/09/17 03:52:55;;;;;;;11.07;8.17;;;9.60;99.90;;;;;;5052387;28;21166;-72
2022/09/17 03:55:22;;;;;;;15.73;8.60;;;9.60;99.90;;;;;;5052317;28;20450;-72
2022/09/17 03:57:50;;;;;;;9.90;7.90;;;9.60;99.90;;;;;;5051056;28;20519;-72
2022/09/17 04:00:17;;;;;;;9.93;7.60;;;9.60;99.90;;;;;;5052264;28;20446;-72
2022/09/17 04:02:43;;;;;;;15.23;8.73;;;9.50;99.90;;;;;;5051872;28;20965;-72
2022/09/17 04:05:10;;;;;;;10.10;7.80;;;9.50;99.90;;;;;;5052292;28;20522;-72
2022/09/17 04:07:39;;;;;;;13.70;7.57;;;9.50;99.90;;;;;;5052363;28;20948;-72
2022/09/17 04:10:06;;;;;;;11.50;8.23;;;9.50;99.90;;;;;;5052435;28;20457;-72
2022/09/17 04:12:33;;;;;;;10.50;7.90;;;9.50;99.90;;;;;;5052461;28;20476;-72
2022/09/17 04:15:01;;;;;;;13.83;7.57;;;9.50;99.90;;;;;;5052586;28;20502;-72
2022/09/17 04:17:27;;;;;;;9.60;7.57;;;9.40;99.90;;;;;;5051899;28;20582;-72
2022/09/17 04:19:54;;;;;;;13.43;7.60;;;9.50;99.90;;;;;;5052333;28;20961;-72
2022/09/17 04:22:21;;;;;;;10.20;7.23;;;9.50;99.90;;;;;;5052262;28;20475;-72
2022/09/17 04:24:47;;;;;;;16.00;7.03;;;9.40;99.90;;;;;;5052086;28;20988;-72
2022/09/17 04:27:14;;;;;;;12.13;6.97;;;9.40;99.90;;;;;;5052028;28;20448;-71
2022/09/17 04:29:41;;;;;;;15.43;6.50;;;9.40;99.90;;;;;;5052089;28;20457;-71
2022/09/17 04:32:09;;;;;;;8.53;6.93;;;9.40;99.90;;;;;;5052262;28;20456;-71
2022/09/17 04:34:35;;;;;;;11.70;7.27;;;9.30;99.90;;;;;;5052031;28;20469;-72
2022/09/17 04:37:02;;;;;;;30.07;7.80;;;9.40;99.90;;;;;;5051294;28;20491;-72
2022/09/17 04:39:29;;;;;;;10.87;6.33;;;9.30;99.90;;;;;;5051930;28;20449;-72
2022/09/17 04:41:55;;;;;;;8.70;6.20;;;9.30;99.90;;;;;;5050753;28;20488;-72
2022/09/17 04:44:22;;;;;;;9.60;6.57;;;9.30;99.90;;;;;;5051164;28;20473;-72
2022/09/17 04:46:49;;;;;;;9.23;6.83;;;9.30;99.90;;;;;;5050950;28;20464;-72
2022/09/17 04:49:17;;;;;;;18.77;6.50;;;9.30;99.90;;;;;;5051627;28;20586;-71
2022/09/17 04:51:44;;;;;;;7.87;6.30;;;9.30;99.90;;;;;;5051285;28;20452;-71
2022/09/17 04:54:10;;;;;;;17.63;7.10;;;9.40;99.90;;;;;;5051054;28;20472;-70
2022/09/17 04:56:37;;;;;;;11.00;6.53;;;9.40;99.90;;;;;;5050561;28;20880;-71
2022/09/17 04:59:04;;;;;;;11.50;6.87;;;9.40;99.90;;;;;;5050310;28;20492;-71
2022/09/17 05:01:30;;;;;;;12.00;6.50;;;9.40;99.90;;;;;;5043255;28;20820;-70
2022/09/17 05:03:57;;;;;;;11.90;5.83;;;9.40;99.90;;;;;;5047017;28;20988;-70
2022/09/17 05:06:25;;;;;;;8.27;5.80;;;9.40;99.90;;;;;;5050142;28;20477;-70
2022/09/17 05:08:52;;;;;;;13.30;5.47;;;9.40;99.90;;;;;;5050014;28;20441;-70
2022/09/17 05:11:18;;;;;;;8.90;6.30;;;9.40;99.90;;;;;;5048826;28;20537;-71
2022/09/17 05:13:45;;;;;;;10.00;6.27;;;9.40;99.90;;;;;;5049891;28;20538;-70
2022/09/17 05:16:11;;;;;;;9.53;5.50;;;9.30;99.90;;;;;;5049690;28;20461;-71
2022/09/17 05:18:38;;;;;;;12.03;5.43;;;9.30;99.90;;;;;;5049997;28;21064;-71
2022/09/17 05:21:05;;;;;;;13.47;5.40;;;9.30;99.90;;;;;;5050192;28;20449;-70
2022/09/17 05:23:33;;;;;;;12.97;6.40;;;9.30;99.90;;;;;;5046514;28;20773;-70
2022/09/17 05:26:00;;;;;;;16.43;5.10;;;9.30;99.90;;;;;;5047838;28;20525;-70
2022/09/17 05:28:27;;;;;;;10.00;5.50;;;9.30;99.90;;;;;;5050362;28;20782;-70
2022/09/17 05:30:54;;;;;;;17.03;5.40;;;9.30;99.90;;;;;;5050043;28;20510;-71
2022/09/17 05:33:21;;;;;;;21.50;5.83;;;9.30;99.90;;;;;;5050031;28;20473;-71
2022/09/17 05:35:48;;;;;;;12.90;5.30;;;9.30;99.90;;;;;;5049950;28;20666;-70
2022/09/17 05:38:14;;;;;;;11.30;5.20;;;9.30;99.90;;;;;;5049979;28;21067;-71
2022/09/17 05:40:42;;;;;;;14.17;5.50;;;9.30;99.90;;;;;;5049783;28;20498;-71
2022/09/17 05:43:10;;;;;;;13.07;5.63;;;9.40;99.90;;;;;;5049842;28;20473;-71
2022/09/17 05:45:37;;;;;;;15.97;5.57;;;9.40;99.90;;;;;;5049211;28;20514;-70
2022/09/17 05:48:06;;;;;;;7.83;5.50;;;9.40;99.90;;;;;;5049749;28;20502;-71
2022/09/17 05:50:33;;;;;;;13.43;4.90;;;9.40;99.90;;;;;;5049730;28;20736;-70
2022/09/17 05:53:04;;;;;;;10.37;5.13;;;9.40;99.90;;;;;;5049644;28;20468;-71
2022/09/17 05:55:31;;;;;;;17.13;5.40;;;9.40;99.90;;;;;;5047644;28;20456;-71
2022/09/17 05:57:59;;;;;;;10.13;5.40;;;9.40;99.90;;;;;;5049288;28;20491;-71
2022/09/17 06:00:26;;;;;;;9.43;5.27;;;9.40;99.90;;;;;;5049321;28;20514;-70
2022/09/17 06:02:55;;;;;;;12.13;5.63;;;9.50;99.90;;;;;;5049356;28;20453;-71
2022/09/17 06:05:21;;;;;;;13.83;5.83;;;9.50;99.90;;;;;;5049012;28;20811;-71
2022/09/17 06:07:48;;;;;;;14.10;5.90;;;9.50;99.90;;;;;;5049131;28;20449;-71
2022/09/17 06:10:15;;;;;;;13.17;6.67;;;9.50;99.90;;;;;;5049651;28;20586;-70
2022/09/17 06:12:41;;;;;;;15.67;7.00;;;9.50;99.90;;;;;;5049329;28;20504;-70
2022/09/17 06:15:13;;;;;;;16.00;6.67;;;9.60;99.90;;;;;;5049426;28;20548;-71
2022/09/17 06:17:40;;;;;;;19.63;7.30;;;9.70;99.90;;;;;;5048789;28;20485;-71
2022/09/17 06:20:08;;;;;;;9.40;6.20;;;9.70;99.90;;;;;;5049259;28;20445;-70
2022/09/17 06:22:35;;;;;;;14.73;6.27;;;9.80;99.90;;;;;;5049227;28;20453;-71
2022/09/17 06:25:02;;;;;;;11.70;6.40;;;9.80;99.90;;;;;;5046452;28;20453;-71
2022/09/17 06:27:31;;;;;;;12.87;7.40;;;9.90;99.90;;;;;;5050094;28;20537;-72
2022/09/17 06:29:57;;;;;;;17.20;5.90;;;10.20;99.90;;;;;;5049791;28;20512;-72
2022/09/17 06:32:25;;;;;;;17.07;6.30;;;10.60;99.90;;;;;;5046267;28;20949;-72
2022/09/17 06:34:52;;;;;;;13.90;6.17;;;11.20;99.90;;;;;;5048886;28;21003;-72
2022/09/17 06:37:19;;;;;;;8.20;5.67;;;11.70;99.90;;;;;;5049140;28;20957;-72
2022/09/17 06:39:46;;;;;;;12.20;5.77;;;12.20;99.90;;;;;;5050453;28;20455;-72
2022/09/17 06:42:13;;;;;;;12.57;4.90;;;12.80;99.90;;;;;;5049980;28;20983;-72
2022/09/17 06:44:39;;;;;;;12.27;5.57;;;13.00;99.90;;;;;;5049870;28;20473;-72
2022/09/17 06:47:06;;;;;;;15.10;5.20;;;13.30;99.90;;;;;;5052183;28;20492;-72
2022/09/17 06:49:34;;;;;;;13.37;5.00;;;13.70;99.90;;;;;;5054433;28;20453;-72
2022/09/17 06:52:01;;;;;;;15.30;6.53;;;14.00;99.90;;;;;;5054821;28;20451;-72
2022/09/17 06:54:28;;;;;;;7.60;4.90;;;14.60;99.90;;;;;;5054867;28;20546;-72
2022/09/17 06:56:55;;;;;;;7.73;4.80;;;14.90;99.90;;;;;;5054550;28;20457;-71
2022/09/17 06:59:21;;;;;;;17.00;5.33;;;15.00;99.90;;;;;;5053251;28;20514;-72
2022/09/17 07:01:48;;;;;;;14.20;5.20;;;14.90;99.90;;;;;;5052983;28;20463;-72
2022/09/17 07:04:16;;;;;;;19.90;5.00;;;15.10;99.90;;;;;;5052882;28;20522;-72
2022/09/17 07:06:44;;;;;;;13.30;5.77;;;15.00;99.90;;;;;;5053233;28;20452;-72
2022/09/17 07:09:11;;;;;;;10.73;5.00;;;14.90;99.90;;;;;;5053072;28;20949;-72
2022/09/17 07:11:38;;;;;;;20.80;5.73;;;15.00;99.90;;;;;;5052942;28;20452;-72
2022/09/17 07:14:05;;;;;;;9.70;5.00;;;15.30;99.90;;;;;;5053196;28;20473;-72
2022/09/17 07:16:34;;;;;;;11.83;4.87;;;15.40;99.90;;;;;;5052316;28;20448;-72
2022/09/17 07:19:01;;;;;;;12.53;4.80;;;15.20;99.90;;;;;;5053357;28;20496;-72
2022/09/17 07:21:28;;;;;;;13.30;5.60;;;15.20;99.90;;;;;;5053210;28;20455;-72
2022/09/17 07:23:56;;;;;;;16.70;5.40;;;15.10;99.90;;;;;;5052208;28;21076;-72
2022/09/17 07:26:23;;;;;;;10.60;4.83;;;15.10;99.90;;;;;;5052881;28;20464;-72
2022/09/17 07:28:50;;;;;;;12.57;5.20;;;15.20;99.90;;;;;;5052507;28;20526;-72
2022/09/17 07:31:16;;;;;;;9.93;4.70;;;15.30;99.90;;;;;;5052761;28;20946;-72
2022/09/17 07:33:44;;;;;;;17.43;4.97;;;15.20;99.90;;;;;;5052553;28;20473;-72
2022/09/17 07:36:13;;;;;;;16.23;5.13;;;15.20;99.90;;;;;;5052742;28;20507;-72
2022/09/17 07:38:39;;;;;;;9.50;4.40;;;15.10;99.90;;;;;;5052333;28;20477;-72
2022/09/17 07:41:13;;;;;;;13.80;4.80;;;15.10;99.90;;;;;;5053337;28;20445;-72
2022/09/17 07:43:40;;;;;;;11.53;4.70;;;15.10;99.90;;;;;;5052197;28;20465;-72
2022/09/17 07:46:09;;;;;;;10.43;4.40;;;15.10;99.90;;;;;;5052033;28;20491;-74
2022/09/17 07:48:36;;;;;;;12.00;4.80;;;15.30;99.90;;;;;;5052594;28;20449;-72
2022/09/17 07:51:03;;;;;;;15.47;4.70;;;15.50;99.90;;;;;;5052423;28;20454;-72
2022/09/17 07:53:29;;;;;;;13.30;4.77;;;15.80;99.90;;;;;;5052439;28;20523;-72
2022/09/17 07:55:58;;;;;;;11.40;5.13;;;15.90;99.90;;;;;;5052048;28;20514;-72
2022/09/17 07:58:29;;;;;;;14.23;4.23;;;16.00;99.90;;;;;;5052161;28;20489;-72
2022/09/17 08:01:01;;;;;;;12.43;4.43;;;15.80;99.90;;;;;;5052541;28;20458;-72
2022/09/17 08:03:27;;;;;;;11.13;4.73;;;15.50;99.90;;;;;;5052087;28;20465;-72
2022/09/17 08:05:54;;;;;;;10.60;4.97;;;15.30;99.90;;;;;;5051993;28;20465;-72
2022/09/17 08:08:21;;;;;;;12.87;5.07;;;15.20;99.90;;;;;;5051866;28;20441;-73
2022/09/17 08:10:47;;;;;;;12.27;4.80;;;15.50;99.90;;;;;;5052058;28;20511;-73
2022/09/17 08:13:14;;;;;;;7.80;4.27;;;15.90;99.90;;;;;;5051834;28;20465;-73
2022/09/17 08:15:42;;;;;;;10.40;4.70;;;16.10;99.90;;;;;;5051910;28;20450;-72
2022/09/17 08:18:08;;;;;;;11.73;4.77;;;16.40;99.90;;;;;;5051853;28;20461;-73
2022/09/17 08:20:35;;;;;;;7.17;4.13;;;16.40;99.90;;;;;;5050798;28;20503;-73
2022/09/17 08:23:02;;;;;;;15.33;5.67;;;16.00;99.90;;;;;;5051778;28;20535;-73
2022/09/17 08:25:28;;;;;;;9.50;4.90;;;15.90;99.90;;;;;;5051417;28;20445;-73
2022/09/17 08:27:55;;;;;;;10.90;4.67;;;15.70;99.90;;;;;;5051239;28;21015;-73
2022/09/17 08:30:22;;;;;;;7.67;4.77;;;15.60;99.90;;;;;;5050649;28;20556;-73
2022/09/17 08:32:50;;;;;;;8.40;4.77;;;15.30;99.90;;;;;;5051521;28;20832;-73
2022/09/17 08:35:18;;;;;;;12.07;4.07;;;15.40;99.90;;;;;;5051266;28;20949;-74
2022/09/17 08:37:46;;;;;;;13.30;4.63;;;15.70;99.90;;;;;;5051258;28;20465;-73
2022/09/17 08:40:18;;;;;;;8.23;4.30;;;16.00;99.90;;;;;;5051202;28;20511;-74
2022/09/17 08:42:53;;;;;;;9.00;4.10;;;16.40;99.90;;;;;;5050834;28;20878;-74
2022/09/17 08:45:20;;;;;;;5.40;3.50;;;16.50;99.90;;;;;;5050881;28;20455;-74
2022/09/17 08:47:48;;;;;;;8.20;3.80;;;16.50;99.90;;;;;;5051579;28;20503;-74
2022/09/17 08:50:23;;;;;;;14.27;4.70;;;16.40;99.90;;;;;;5051385;28;20971;-74
2022/09/17 08:53:12;;;;;;;6.03;3.27;;;16.10;99.90;;;;;;5050367;28;20453;-74
2022/09/17 08:55:43;;;;;;;10.73;3.30;;;16.30;99.90;;;;;;5050952;28;21116;-74
2022/09/17 08:58:40;;;;;;;12.37;3.33;;;16.50;99.90;;;;;;5051109;28;20453;-74
2022/09/17 09:01:20;;;;;;;6.40;3.17;;;16.10;99.90;;;;;;5050725;28;20453;-74
2022/09/17 09:04:14;;;;;;;12.63;3.10;;;16.10;99.90;;;;;;5051220;28;20477;-74
2022/09/17 09:06:47;;;;;;;4.80;2.40;;;16.10;99.90;;;;;;5051017;28;20441;-74
2022/09/17 09:09:16;;;;;;;11.13;2.87;;;16.40;99.90;;;;;;5050258;28;20426;-74
2022/09/17 09:11:45;;;;;;;3.10;2.80;;;16.70;99.90;;;;;;5050973;28;20499;-74
2022/09/17 09:14:19;;;;;;;6.17;2.93;;;16.80;99.90;;;;;;5051292;28;20468;-74
2022/09/17 09:16:47;;;;;;;6.53;3.00;;;16.40;99.90;;;;;;5051216;28;20423;-74
2022/09/17 09:19:21;;;;;;;5.73;3.10;;;16.10;99.90;;;;;;5051077;28;20524;-73
2022/09/17 09:22:11;;;;;;;5.47;2.90;;;15.90;99.90;;;;;;5050677;28;20464;-74
2022/09/17 09:24:41;;;;;;;9.83;3.13;;;15.70;99.90;;;;;;5050317;28;20523;-74
2022/09/17 09:27:17;;;;;;;5.63;3.10;;;15.70;99.90;;;;;;5050153;28;20499;-74
2022/09/17 09:29:55;;;;;;;9.73;3.67;;;15.80;99.90;;;;;;5049859;28;20449;-74
2022/09/17 09:32:33;;;;;;;11.33;3.50;;;15.60;99.90;;;;;;5050312;28;20454;-74
2022/09/17 09:35:01;;;;;;;8.37;3.50;;;15.50;99.90;;;;;;5049863;28;20483;-74
2022/09/17 09:37:33;;;;;;;7.77;3.50;;;15.30;99.90;;;;;;5050068;28;20506;-74
2022/09/17 09:40:07;;;;;;;7.60;3.10;;;15.10;99.90;;;;;;5049690;28;20481;-74
2022/09/17 09:42:37;;;;;;;6.20;3.10;;;14.80;99.90;;;;;;5050109;28;20458;-74
2022/09/17 09:45:13;;;;;;;9.37;3.30;;;14.60;99.90;;;;;;5048360;28;20885;-74
2022/09/17 09:47:51;;;;;;;9.70;3.20;;;14.40;99.90;;;;;;5049967;28;20519;-75
2022/09/17 09:50:31;;;;;;;7.40;3.23;;;14.20;99.90;;;;;;5049698;28;20882;-74
2022/09/17 09:53:10;;;;;;;7.90;3.10;;;14.00;99.90;;;;;;5049401;28;20473;-75
2022/09/17 09:55:53;;;;;;;8.60;3.33;;;13.90;99.90;;;;;;5049215;28;20453;-75
2022/09/17 09:58:30;;;;;;;8.97;2.97;;;13.80;99.90;;;;;;5049770;28;20453;-74
2022/09/17 10:00:56;;;;;;;6.07;2.80;;;13.70;99.90;;;;;;5049066;28;20501;-74
2022/09/17 10:03:26;;;;;;;5.17;2.90;;;13.70;99.90;;;;;;5049324;28;20475;-74
2022/09/17 10:05:56;;;;;;;4.73;2.77;;;13.60;99.90;;;;;;5049609;28;20503;-74
2022/09/17 10:08:24;;;;;;;5.80;2.97;;;13.60;99.90;;;;;;5049445;28;20449;-74
2022/09/17 10:10:58;;;;;;;11.40;2.70;;;13.60;99.90;;;;;;5049509;28;20803;-75
2022/09/17 10:13:26;;;;;;;5.03;2.83;;;13.60;99.90;;;;;;5049329;28;21061;-74
2022/09/17 10:15:53;;;;;;;12.30;2.83;;;13.70;99.90;;;;;;5048988;28;20499;-74
2022/09/17 10:18:21;;;;;;;4.90;2.80;;;14.00;99.90;;;;;;5049970;28;20441;-74
2022/09/17 10:20:56;;;;;;;9.53;2.70;;;14.50;99.90;;;;;;5051881;28;20536;-74
2022/09/17 10:23:27;;;;;;;7.30;2.93;;;15.20;99.90;;;;;;5054016;28;20472;-74
2022/09/17 10:25:55;;;;;;;6.33;2.83;;;15.70;99.90;;;;;;5053726;28;20801;-74
2022/09/17 10:28:39;;;;;;;9.70;2.40;;;16.40;99.90;;;;;;5053419;28;20540;-75
2022/09/17 10:31:09;;;;;;;6.13;2.47;;;17.00;99.90;;;;;;5050622;28;20445;-75
2022/09/17 10:33:39;;;;;;;8.50;2.40;;;17.30;99.90;;;;;;5053816;28;20473;-75
2022/09/17 10:36:08;;;;;;;9.77;2.77;;;17.20;99.90;;;;;;5053554;28;20452;-74
2022/09/17 10:38:40;;;;;;;7.83;2.60;;;17.00;99.90;;;;;;5053395;28;20859;-75
2022/09/17 10:41:13;;;;;;;8.40;2.40;;;16.70;99.90;;;;;;5050556;28;20424;-74
2022/09/17 10:43:40;;;;;;;4.63;2.50;;;16.10;99.90;;;;;;5053019;28;21004;-75
2022/09/17 10:46:10;;;;;;;5.97;2.20;;;16.10;99.90;;;;;;5052700;28;20553;-74
2022/09/17 10:48:43;;;;;;;7.13;2.50;;;16.50;99.90;;;;;;5053292;28;20457;-74
2022/09/17 10:51:11;;;;;;;6.53;2.23;;;17.00;99.90;;;;;;5052630;28;20499;-74
2022/09/17 10:53:59;;;;;;;3.57;1.93;;;17.40;99.90;;;;;;5052715;28;20473;-74
2022/09/17 10:56:33;;;;;;;5.67;1.90;;;17.60;99.90;;;;;;5052457;28;20428;-75
2022/09/17 10:59:09;;;;;;;5.00;2.43;;;17.80;99.90;;;;;;5052819;28;20453;-75
2022/09/17 11:01:49;;;;;;;3.97;1.80;;;17.70;99.90;;;;;;5049899;28;20506;-74
2022/09/17 11:04:29;;;;;;;7.10;2.30;;;18.00;99.90;;;;;;5051900;28;20469;-75
2022/09/17 11:07:16;;;;;;;4.07;2.10;;;18.10;99.90;;;;;;5052304;28;20438;-75
2022/09/17 11:09:59;;;;;;;2.83;1.90;;;18.40;99.90;;;;;;5052280;28;20424;-76
2022/09/17 11:12:40;;;;;;;13.00;2.43;;;18.40;99.90;;;;;;5052504;28;20463;-75
2022/09/17 11:15:20;;;;;;;4.13;2.03;;;18.50;99.90;;;;;;5049716;28;20467;-74
2022/09/17 11:18:03;;;;;;;4.23;2.20;;;18.80;99.90;;;;;;5052734;28;20427;-74
2022/09/17 11:20:44;;;;;;;4.90;2.30;;;18.90;99.90;;;;;;5049253;28;20467;-73
2022/09/17 11:23:27;;;;;;;5.80;1.70;;;19.10;99.90;;;;;;5050124;28;20451;-74
2022/09/17 11:25:59;;;;;;;5.20;1.90;;;18.80;99.90;;;;;;5052455;28;20445;-74
2022/09/17 11:28:42;;;;;;;3.97;1.93;;;18.80;99.90;;;;;;5052461;28;20461;-74
2022/09/17 11:31:21;;;;;;;3.97;1.90;;;19.00;99.90;;;;;;5052014;28;20424;-74
2022/09/17 11:34:14;;;;;;;5.57;1.97;;;18.90;99.90;;;;;;5052327;28;20989;-74
2022/09/17 11:36:48;;;;;;;5.00;1.77;;;19.10;99.90;;;;;;5045612;28;20451;-72
2022/09/17 11:39:21;;;;;;;3.10;1.77;;;19.40;99.90;;;;;;5052151;28;20444;-72
2022/09/17 11:41:53;;;;;;;2.60;1.30;;;19.60;99.90;;;;;;5052084;28;21000;-72
2022/09/17 11:44:24;;;;;;;3.60;1.50;;;19.40;99.90;;;;;;5052596;28;20469;-73
2022/09/17 11:46:55;;;;;;;4.37;1.80;;;19.30;99.90;;;;;;5051776;28;20440;-73
2022/09/17 11:49:27;;;;;;;2.83;1.63;;;19.30;99.90;;;;;;5051974;28;20416;-73
2022/09/17 11:52:00;;;;;;;3.17;1.63;;;18.90;99.90;;;;;;5051653;28;20430;-73
2022/09/17 11:54:32;;;;;;;6.03;2.00;;;18.90;99.90;;;;;;5052157;28;20450;-73
2022/09/17 11:57:09;;;;;;;4.97;2.20;;;18.90;99.90;;;;;;5051273;28;20979;-72
2022/09/17 11:59:40;;;;;;;2.67;1.60;;;18.30;99.90;;;;;;5048638;28;20459;-72
2022/09/17 12:02:19;;;;;;;4.23;1.80;;;18.50;99.90;;;;;;5051175;28;20481;-72
2022/09/17 12:04:53;;;;;;;2.27;1.67;;;18.90;99.90;;;;;;5051761;28;20528;-72
2022/09/17 12:07:29;;;;;;;7.00;2.07;;;19.00;99.90;;;;;;5051230;28;20935;-73
2022/09/17 12:10:02;;;;;;;4.00;1.70;;;19.40;99.90;;;;;;5051338;28;20420;-73
2022/09/17 12:12:31;;;;;;;4.50;1.90;;;19.40;99.90;;;;;;5051096;28;20932;-73
2022/09/17 12:15:03;;;;;;;5.50;1.70;;;19.30;99.90;;;;;;5051276;28;20466;-72
2022/09/17 12:17:36;;;;;;;2.13;1.40;;;19.30;99.90;;;;;;5051240;28;20940;-72
2022/09/17 12:20:08;;;;;;;1.43;1.30;;;19.60;99.90;;;;;;5049394;28;20465;-73
2022/09/17 12:22:39;;;;;;;1.20;1.10;;;19.70;99.90;;;;;;5051372;28;20448;-72
2022/09/17 12:25:11;;;;;;;3.53;1.20;;;20.20;99.90;;;;;;5048582;28;20486;-73
2022/09/17 12:27:45;;;;;;;1.67;1.10;;;20.20;99.90;;;;;;5051030;28;20931;-73
2022/09/17 12:30:13;;;;;;;4.97;1.60;;;20.00;99.90;;;;;;5051037;28;20450;-72
2022/09/17 12:33:08;;;;;;;6.30;1.50;;;19.60;99.90;;;;;;5050857;28;20420;-72
2022/09/17 12:36:02;;;;;;;5.00;1.57;;;19.50;99.90;;;;;;5051166;28;20445;-72
2022/09/17 12:38:52;;;;;;;4.10;1.70;;;19.20;99.90;;;;;;5031521;28;20514;-72
2022/09/17 12:41:21;;;;;;;3.70;1.50;;;19.60;99.90;;;;;;5048544;28;20467;-73
2022/09/17 12:44:03;;;;;;;3.10;1.40;;;19.90;99.90;;;;;;5050488;28;20517;-73
2022/09/17 12:46:48;;;;;;;13.90;1.83;;;19.30;99.90;;;;;;5050600;28;20485;-72
2022/09/17 12:49:33;;;;;;;2.60;1.47;;;19.70;99.90;;;;;;5050388;28;20488;-74
2022/09/17 12:52:04;;;;;;;10.60;1.77;;;20.00;99.90;;;;;;5047157;28;20833;-73
2022/09/17 12:54:47;;;;;;;7.27;1.70;;;19.50;99.90;;;;;;5050924;28;20439;-74
2022/09/17 12:57:24;;;;;;;3.93;1.43;;;19.50;99.90;;;;;;5050383;28;20474;-73
2022/09/17 12:59:58;;;;;;;6.70;2.10;;;19.60;99.90;;;;;;5050596;28;20530;-73
2022/09/17 13:02:29;;;;;;;7.70;2.37;;;19.30;99.90;;;;;;5050017;28;20462;-73
2022/09/17 13:05:09;;;;;;;2.43;1.50;;;19.50;99.90;;;;;;5050954;28;20521;-73
2022/09/17 13:07:53;;;;;;;2.83;1.47;;;19.20;99.90;;;;;;5049774;28;20431;-73
2022/09/17 13:10:46;;;;;;;4.43;1.90;;;18.40;99.90;;;;;;5050067;28;20830;-72